CheckWX is a tool to help pilots better visualize weather data.  It is not intended as a substitute for an official pre-flight weather briefing.

04:40:07 UTC

HEAR TAF
El Arish International Airport
El Arish, Egypt
TAF HEAR 092300Z 1000/1106 21008KT 9999 SCT025 TEMPO 1003/1015 4000 RA BKN030

Dec-10@
00:00 UTC

Dec-10 @ 00:00 UTC

Dec-11@
06:00 UTC

Dec-11 @ 06:00 UTC

TAF HEAR 092300Z 1000/1106 21008KT 9999 SCT025
Wind
  • 210° at 8 KTS
Cloud Levels
  • Scattered at 2,500' AGL

Dec-10@
03:00 UTC

Dec-10 @ 03:00 UTC

Dec-10@
15:00 UTC

Dec-10 @ 15:00 UTC

TEMPO 1003/1015 4000 RA BKN030

Temporary

Temporary Changes expected for less than half the time period

Conditions
Rain
Cloud Levels
  • Broken at 3,000' AGL